Reece City, Alabama
Current Conditions -  °F | °C
As of 8:35 AM on Monday 26 Jan 2015 (Local Time) from KGAD Reporting Station
Overcast Overcast  
Wind Chill: 32°   Ceiling: 1700
Heat Index: 39°   Visibility: 10mi
Dew Point: 32°   Wind: 10mph
Humidity: 75%   Direction: 290°WNW
Pressure: 29.94"   Gusts: NA
Location:  34.0771°N, 86.0689°W
Report Text: KGAD 261435Z 29009KT 250V310 10SM OVC017 04/00 A2994 RMK AO1
Loading
Personal Weather Stations






























Interactive Weather Map New forecast layout! Learn more

10-Day Weather Forecast

Advertisements
Track Severe Weather on mobile